createdAt,value
2019-04-09T00:01:21.719Z,10.88
2019-04-09T00:03:52.376Z,9.77
2019-04-09T00:06:23.182Z,9.57
2019-04-09T00:08:54.288Z,10.00
2019-04-09T00:11:24.944Z,9.30
2019-04-09T00:13:55.851Z,8.60
2019-04-09T00:16:27.301Z,8.53
2019-04-09T00:18:58.348Z,9.90
2019-04-09T00:21:29.541Z,8.10
2019-04-09T00:24:00.282Z,8.13
2019-04-09T00:26:43.210Z,8.27
2019-04-09T00:29:03.225Z,8.40
2019-04-09T00:31:34.700Z,8.43
2019-04-09T00:34:06.890Z,9.58
2019-04-09T00:36:37.602Z,8.93
2019-04-09T00:39:08.311Z,9.77
2019-04-09T00:41:39.949Z,10.80
2019-04-09T00:49:11.548Z,7.53
2019-04-09T00:51:42.443Z,7.87
2019-04-09T00:54:13.060Z,8.23
2019-04-09T00:56:56.524Z,8.10
2019-04-09T00:59:15.913Z,7.60
2019-04-09T01:01:46.539Z,8.27
2019-04-09T01:04:17.225Z,7.07
2019-04-09T01:06:47.837Z,7.27
2019-04-09T01:09:19.002Z,7.13
2019-04-09T01:11:49.963Z,7.10
2019-04-09T01:14:21.919Z,8.10
2019-04-09T01:16:52.955Z,7.23
2019-04-09T01:19:24.794Z,7.07
2019-04-09T01:21:56.241Z,7.60
2019-04-09T01:24:34.167Z,7.90
2019-04-09T01:27:12.249Z,7.67
2019-04-09T01:29:49.540Z,8.40
2019-04-09T01:32:42.240Z,7.87
2019-04-09T01:35:45.012Z,6.80
2019-04-09T01:38:36.300Z,7.63
2019-04-09T01:41:15.045Z,6.60
2019-04-09T01:44:01.861Z,7.13
2019-04-09T01:46:58.238Z,7.77
2019-04-09T01:49:36.545Z,6.90
2019-04-09T01:52:14.746Z,7.17
2019-04-09T01:55:04.601Z,6.80
2019-04-09T01:57:57.945Z,7.30
2019-04-09T02:00:48.554Z,7.37
2019-04-09T02:03:37.799Z,7.00
2019-04-09T02:06:16.642Z,6.83
2019-04-09T02:09:02.944Z,6.90
2019-04-09T02:23:25.650Z,6.90
2019-04-09T02:26:12.751Z,6.97
2019-04-09T02:29:08.715Z,6.57
2019-04-09T02:32:07.377Z,7.17
2019-04-09T02:34:56.685Z,7.43
2019-04-09T02:37:45.336Z,7.20
2019-04-09T02:40:40.427Z,8.03
2019-04-09T02:43:22.941Z,6.77
2019-04-09T02:46:11.813Z,6.87
2019-04-09T02:48:57.232Z,7.10
2019-04-09T02:52:05.328Z,6.50
2019-04-09T02:54:58.299Z,7.07
2019-04-09T02:57:46.384Z,7.93
2019-04-09T03:00:22.192Z,7.80
2019-04-09T03:03:01.807Z,7.93
2019-04-09T03:05:40.976Z,7.30
2019-04-09T03:08:23.307Z,8.73
2019-04-09T03:11:16.696Z,7.80
2019-04-09T03:14:05.911Z,7.60
2019-04-09T03:16:42.296Z,8.10
2019-04-09T03:19:34.695Z,7.93
2019-04-09T03:22:13.157Z,6.53
2019-04-09T03:24:57.178Z,7.00
2019-04-09T03:27:34.358Z,8.20
2019-04-09T03:30:12.443Z,7.30
2019-04-09T03:32:55.929Z,7.30
2019-04-09T03:35:44.417Z,7.57
2019-04-09T03:38:38.239Z,7.57
2019-04-09T03:41:27.328Z,7.00
2019-04-09T03:44:17.202Z,7.20
2019-04-09T03:47:07.492Z,8.60
2019-04-09T03:49:57.219Z,8.00
2019-04-09T03:52:41.792Z,7.20
2019-04-09T03:55:30.375Z,8.13
2019-04-09T04:03:29.585Z,8.15
2019-04-09T04:06:28.551Z,8.00
2019-04-09T04:09:06.645Z,7.67
2019-04-09T04:12:02.263Z,7.57
2019-04-09T04:14:50.180Z,7.40
2019-04-09T04:17:44.650Z,7.13
2019-04-09T04:20:52.476Z,7.60
2019-04-09T04:23:41.173Z,7.60
2019-04-09T04:26:34.115Z,7.10
2019-04-09T04:29:33.162Z,7.30
2019-04-09T04:32:14.009Z,7.83
2019-04-09T04:35:10.224Z,7.43
2019-04-09T04:38:14.291Z,8.40
2019-04-09T04:41:03.582Z,7.20
2019-04-09T04:43:43.581Z,8.00
2019-04-09T04:46:28.265Z,8.43
2019-04-09T04:49:16.721Z,7.70
2019-04-09T04:51:58.279Z,9.15
2019-04-09T04:54:46.912Z,7.37
2019-04-09T04:57:35.728Z,8.53
2019-04-09T05:00:39.385Z,7.97
2019-04-09T05:03:20.159Z,8.17
2019-04-09T05:06:13.583Z,7.67
2019-04-09T05:09:02.464Z,9.13
2019-04-09T05:11:57.067Z,8.60
2019-04-09T05:14:43.081Z,7.87
2019-04-09T05:17:45.043Z,9.23
2019-04-09T05:20:25.028Z,7.60
2019-04-09T05:23:21.243Z,7.73
2019-04-09T05:26:12.080Z,8.20
2019-04-09T05:29:11.642Z,8.17
2019-04-09T05:32:00.428Z,9.27
2019-04-09T05:34:51.912Z,8.00
2019-04-09T05:37:44.995Z,8.67
2019-04-09T05:40:33.525Z,6.40
2019-04-09T05:43:12.746Z,7.77
2019-04-09T05:45:57.874Z,8.20
2019-04-09T05:48:38.253Z,6.67
2019-04-09T05:51:17.366Z,8.03
2019-04-09T05:53:58.792Z,6.63
2019-04-09T05:56:56.452Z,6.70
2019-04-09T05:59:45.683Z,6.47
2019-04-09T06:02:35.944Z,6.70
2019-04-09T06:05:38.665Z,6.97
2019-04-09T06:08:29.615Z,7.57
2019-04-09T06:11:01.207Z,7.20
2019-04-09T06:13:32.034Z,8.43
2019-04-09T06:16:03.674Z,8.50
2019-04-09T06:18:34.426Z,9.63
2019-04-09T06:21:05.783Z,8.67
2019-04-09T06:23:37.059Z,8.50
2019-04-09T06:26:09.406Z,8.83
2019-04-09T06:28:40.264Z,9.50
2019-04-09T06:31:11.129Z,8.10
2019-04-09T06:34:16.187Z,8.70
2019-04-09T06:36:56.326Z,9.43
2019-04-09T06:39:40.926Z,10.20
2019-04-09T06:42:17.079Z,9.87
2019-04-09T06:45:07.803Z,9.03
2019-04-09T06:48:04.932Z,9.57
2019-04-09T06:50:54.686Z,10.10
2019-04-09T06:53:48.325Z,10.13
2019-04-09T06:56:38.026Z,9.10
2019-04-09T06:59:33.951Z,9.00
2019-04-09T07:02:20.417Z,9.70
2019-04-09T07:05:04.913Z,10.27
2019-04-09T07:07:54.093Z,8.67
2019-04-09T07:10:53.029Z,8.70
2019-04-09T07:13:49.795Z,10.03
2019-04-09T07:16:38.462Z,10.00
2019-04-09T07:19:27.222Z,10.70
2019-04-09T07:22:23.155Z,9.67
2019-04-09T07:25:12.047Z,10.63
2019-04-09T07:27:53.236Z,10.13
2019-04-09T07:30:34.988Z,8.10
2019-04-09T07:33:28.659Z,9.10
2019-04-09T07:36:27.384Z,10.03
2019-04-09T07:39:24.506Z,10.07
2019-04-09T07:42:12.710Z,10.80
2019-04-09T07:44:52.005Z,9.60
2019-04-09T07:47:38.046Z,10.80
2019-04-09T07:50:28.600Z,9.63
2019-04-09T07:53:16.311Z,10.07
2019-04-09T07:55:54.342Z,10.17
2019-04-09T07:58:29.750Z,10.17
2019-04-09T08:01:19.688Z,9.87
2019-04-09T08:04:13.113Z,10.10
2019-04-09T08:06:59.168Z,9.70
2019-04-09T08:09:35.458Z,9.90
2019-04-09T08:12:13.277Z,9.47
2019-04-09T08:14:59.017Z,9.40
2019-04-09T08:17:44.119Z,10.77
2019-04-09T08:20:25.830Z,9.47
2019-04-09T08:23:02.778Z,9.80
2019-04-09T08:25:48.458Z,10.10
2019-04-09T08:28:36.113Z,9.53
2019-04-09T08:31:38.129Z,9.50
2019-04-09T08:34:31.794Z,10.20
2019-04-09T08:37:21.802Z,9.80
2019-04-09T08:40:01.830Z,10.80
2019-04-09T08:42:46.650Z,9.20
2019-04-09T08:45:35.251Z,10.10
2019-04-09T08:48:34.612Z,10.20
2019-04-09T08:51:13.633Z,10.33
2019-04-09T08:54:06.661Z,9.17
2019-04-09T08:56:44.159Z,9.27
2019-04-09T08:59:33.095Z,8.63
2019-04-09T09:02:29.182Z,8.70
2019-04-09T09:05:15.006Z,8.63
2019-04-09T09:08:10.525Z,8.63
2019-04-09T09:10:52.796Z,8.43
2019-04-09T09:13:29.693Z,8.67
2019-04-09T09:16:09.873Z,8.03
2019-04-09T09:19:08.741Z,10.07
2019-04-09T09:22:01.120Z,9.10
2019-04-09T09:24:40.131Z,8.77
2019-04-09T09:27:28.773Z,8.50
2019-04-09T09:30:17.847Z,8.37
2019-04-09T09:33:09.634Z,9.33
2019-04-09T09:35:49.733Z,9.40
2019-04-09T09:38:30.132Z,9.27
2019-04-09T09:41:20.167Z,9.40
2019-04-09T09:44:09.854Z,10.00
2019-04-09T09:46:56.335Z,9.43
2019-04-09T09:49:55.283Z,9.77
2019-04-09T09:52:32.946Z,9.73
2019-04-09T09:55:27.285Z,8.50
2019-04-09T09:58:16.696Z,9.73
2019-04-09T10:01:10.806Z,9.07
2019-04-09T10:04:03.449Z,9.60
2019-04-09T10:06:59.019Z,9.70
2019-04-09T10:09:41.473Z,8.70
2019-04-09T10:12:30.694Z,8.50
2019-04-09T10:15:17.298Z,9.60
2019-04-09T10:18:05.170Z,9.87
2019-04-09T10:20:56.108Z,9.03
2019-04-09T10:23:52.963Z,9.43
2019-04-09T10:26:29.791Z,10.30
2019-04-09T10:29:11.754Z,9.00
2019-04-09T10:31:56.587Z,9.97
2019-04-09T10:34:56.354Z,9.63
2019-04-09T10:37:33.341Z,10.13
2019-04-09T10:40:12.481Z,12.00
2019-04-09T10:42:56.542Z,10.40
2019-04-09T10:45:47.041Z,10.40
2019-04-09T10:48:36.297Z,10.30
2019-04-09T10:51:25.894Z,11.97
2019-04-09T10:54:15.017Z,10.90
2019-04-09T10:56:58.134Z,9.40
2019-04-09T11:00:06.216Z,11.30
2019-04-09T11:02:42.307Z,11.77
2019-04-09T11:05:24.801Z,10.57
2019-04-09T11:08:30.935Z,9.70
2019-04-09T11:11:16.519Z,10.23
2019-04-09T11:14:06.227Z,10.17
2019-04-09T11:16:54.905Z,10.13
2019-04-09T11:19:58.854Z,9.37
2019-04-09T11:22:43.246Z,10.03
2019-04-09T11:25:49.509Z,8.87
2019-04-09T11:28:30.036Z,9.40
2019-04-09T11:31:12.106Z,10.10
2019-04-09T11:34:01.489Z,9.93
2019-04-09T11:36:51.687Z,8.97
2019-04-09T11:39:32.273Z,9.90
2019-04-09T11:42:27.984Z,9.50
2019-04-09T11:45:09.782Z,9.63
2019-04-09T11:48:08.457Z,10.37
2019-04-09T11:50:59.371Z,9.30
2019-04-09T11:53:43.972Z,10.03
2019-04-09T11:56:50.321Z,9.70
2019-04-09T11:59:35.305Z,10.13
2019-04-09T12:02:20.600Z,9.80
2019-04-09T12:05:20.516Z,9.60
2019-04-09T12:08:16.850Z,9.50
2019-04-09T12:10:58.972Z,9.20
2019-04-09T12:13:54.953Z,9.60
2019-04-09T12:16:43.817Z,9.70
2019-04-09T12:19:40.861Z,9.55
2019-04-09T12:22:23.824Z,10.65
2019-04-09T12:25:09.362Z,9.90
2019-04-09T12:27:58.389Z,9.40
2019-04-09T12:30:54.210Z,8.60
2019-04-09T12:36:27.594Z,8.10
2019-04-09T12:39:16.301Z,10.43
2019-04-09T12:41:54.686Z,8.80
2019-04-09T12:44:44.423Z,9.13
2019-04-09T12:47:40.159Z,9.47
2019-04-09T12:50:29.789Z,9.10
2019-04-09T12:53:30.110Z,8.90
2019-04-09T12:56:15.073Z,9.90
2019-04-09T12:58:59.388Z,9.00
2019-04-09T13:01:58.291Z,9.60
2019-04-09T13:04:35.850Z,10.00
2019-04-09T13:07:19.847Z,9.10
2019-04-09T13:10:02.901Z,10.67
2019-04-09T13:13:01.605Z,9.20
2019-04-09T13:16:05.680Z,10.43
2019-04-09T13:18:55.545Z,9.87
2019-04-09T13:21:43.471Z,11.10
2019-04-09T13:24:31.523Z,10.50
2019-04-09T13:27:16.491Z,10.20
2019-04-09T13:30:12.304Z,10.53
2019-04-09T13:32:58.204Z,10.07
2019-04-09T13:35:36.690Z,10.47
2019-04-09T13:38:20.741Z,11.57
2019-04-09T13:41:03.445Z,11.17
2019-04-09T13:43:41.693Z,11.30
2019-04-09T13:46:28.697Z,12.57
2019-04-09T13:49:23.066Z,11.53
2019-04-09T13:52:04.571Z,12.07
2019-04-09T13:54:35.603Z,11.10
2019-04-09T13:57:06.229Z,11.40
2019-04-09T13:59:40.479Z,10.50
2019-04-09T14:02:13.330Z,10.13
2019-04-09T14:04:49.411Z,10.50
2019-04-09T14:07:25.712Z,10.37
2019-04-09T14:09:58.444Z,11.23
2019-04-09T14:12:29.448Z,11.20
2019-04-09T14:15:00.793Z,12.23
2019-04-09T14:17:33.496Z,12.97
2019-04-09T14:20:10.204Z,11.83
2019-04-09T14:22:45.613Z,12.60
2019-04-09T14:25:19.190Z,11.00
2019-04-09T14:27:51.055Z,10.37
2019-04-09T14:30:22.262Z,9.80
2019-04-09T14:33:01.773Z,10.83
2019-04-09T14:35:25.627Z,11.50
2019-04-09T14:37:57.956Z,10.17
2019-04-09T14:40:28.655Z,12.03
2019-04-09T14:42:59.409Z,13.07
2019-04-09T14:45:31.668Z,13.30
2019-04-09T14:48:04.524Z,11.90
2019-04-09T14:50:40.067Z,12.10
2019-04-09T14:53:12.433Z,10.10
2019-04-09T14:55:44.979Z,14.00
2019-04-09T14:58:15.778Z,11.70
2019-04-09T15:00:47.405Z,10.27
2019-04-09T15:03:23.196Z,11.60
2019-04-09T15:05:53.544Z,11.00
2019-04-09T15:08:29.185Z,11.60
2019-04-09T15:11:01.738Z,11.07
2019-04-09T15:13:32.600Z,10.63
2019-04-09T15:16:05.389Z,10.90
2019-04-09T15:18:35.971Z,12.47
2019-04-09T15:21:28.815Z,10.13
2019-04-09T15:24:00.817Z,9.43
2019-04-09T15:26:32.290Z,9.83
2019-04-09T15:29:03.313Z,9.60
2019-04-09T15:31:35.421Z,8.97
2019-04-09T15:34:06.334Z,9.47
2019-04-09T15:36:37.783Z,10.50
2019-04-09T15:39:15.598Z,10.20
2019-04-09T15:41:46.897Z,10.17
2019-04-09T15:44:17.719Z,12.10
2019-04-09T15:46:48.423Z,11.67
2019-04-09T15:49:19.904Z,12.90
2019-04-09T15:51:51.181Z,11.40
2019-04-09T15:54:23.565Z,11.33
2019-04-09T15:56:55.155Z,11.60
2019-04-09T15:59:26.175Z,10.03
2019-04-09T16:01:56.912Z,10.53
2019-04-09T16:04:28.136Z,10.67
2019-04-09T16:06:59.398Z,11.67
2019-04-09T16:09:31.084Z,11.53
2019-04-09T16:12:04.401Z,11.50
2019-04-09T16:14:38.352Z,10.90
2019-04-09T16:17:09.231Z,12.77
2019-04-09T16:19:39.876Z,12.67
2019-04-09T16:22:11.510Z,10.43
2019-04-09T16:24:45.027Z,12.20
2019-04-09T16:27:15.729Z,11.00
2019-04-09T16:29:46.553Z,11.00
2019-04-09T16:32:17.645Z,12.30
2019-04-09T16:34:48.421Z,11.73
2019-04-09T16:37:24.631Z,12.03
2019-04-09T16:39:54.702Z,13.80
2019-04-09T16:42:35.124Z,11.97
2019-04-09T16:45:06.174Z,12.30
2019-04-09T16:47:36.577Z,13.30
2019-04-09T16:50:09.398Z,11.77
2019-04-09T16:52:40.356Z,11.93
2019-04-09T16:55:20.548Z,11.77
2019-04-09T16:57:57.301Z,10.33
2019-04-09T17:00:26.799Z,14.03
2019-04-09T17:02:57.686Z,13.43
2019-04-09T17:05:30.972Z,12.77
2019-04-09T17:08:02.694Z,10.60
2019-04-09T17:10:37.444Z,12.37
2019-04-09T17:13:17.012Z,14.37
2019-04-09T17:15:51.842Z,15.30
2019-04-09T17:18:25.135Z,14.70
2019-04-09T17:20:58.226Z,12.97
2019-04-09T17:23:29.620Z,11.70
2019-04-09T17:26:09.516Z,14.33
2019-04-09T17:28:44.141Z,11.83
2019-04-09T17:31:16.026Z,12.83
2019-04-09T17:33:47.617Z,13.83
2019-04-09T17:36:19.939Z,11.20
2019-04-09T17:38:52.695Z,10.10
2019-04-09T17:41:26.400Z,9.53
2019-04-09T17:44:00.606Z,10.00
2019-04-09T17:46:34.412Z,11.20
2019-04-09T17:49:06.709Z,12.40
2019-04-09T17:51:42.361Z,11.23
2019-04-09T17:54:17.575Z,10.17
2019-04-09T17:56:56.619Z,10.50
2019-04-09T17:59:32.091Z,10.50
2019-04-09T18:02:04.827Z,9.83
2019-04-09T18:04:49.546Z,9.77
2019-04-09T18:07:18.251Z,11.30
2019-04-09T18:09:49.668Z,12.00
2019-04-09T18:12:21.345Z,12.10
2019-04-09T18:14:54.142Z,11.20
2019-04-09T18:17:26.975Z,11.47
2019-04-09T18:19:58.174Z,11.67
2019-04-09T18:22:29.449Z,11.67
2019-04-09T18:25:00.383Z,10.97
2019-04-09T18:27:33.819Z,10.83
2019-04-09T18:30:11.624Z,10.40
2019-04-09T18:32:44.193Z,12.95
2019-04-09T18:35:15.243Z,12.40
2019-04-09T18:37:52.605Z,12.93
2019-04-09T18:40:25.872Z,11.10
2019-04-09T18:43:01.597Z,10.10
2019-04-09T18:45:33.289Z,11.03
2019-04-09T18:48:06.534Z,10.27
2019-04-09T18:50:37.472Z,11.38
2019-04-09T18:53:11.487Z,11.80
2019-04-09T18:55:43.261Z,11.73
2019-04-09T18:58:15.383Z,12.40
2019-04-09T19:00:46.527Z,10.97
2019-04-09T19:03:18.398Z,12.87
2019-04-09T19:05:53.289Z,11.80
2019-04-09T19:08:24.850Z,10.67
2019-04-09T19:10:57.054Z,11.43
2019-04-09T19:13:29.526Z,11.13
2019-04-09T19:16:00.288Z,11.77
2019-04-09T19:18:31.809Z,10.30
2019-04-09T19:21:04.749Z,9.87
2019-04-09T19:23:36.000Z,9.80
2019-04-09T19:26:07.738Z,8.27
2019-04-09T19:28:39.424Z,9.10
2019-04-09T19:31:11.375Z,8.53
2019-04-09T19:33:54.660Z,9.37
2019-04-09T19:36:25.355Z,8.80
2019-04-09T19:38:56.962Z,8.23
2019-04-09T19:41:30.000Z,8.90
2019-04-09T19:44:00.930Z,8.40
2019-04-09T19:46:32.994Z,8.87
2019-04-09T19:49:04.455Z,8.07
2019-04-09T19:51:42.066Z,9.53
2019-04-09T19:54:12.881Z,8.33
2019-04-09T19:56:44.165Z,8.03
2019-04-09T19:59:15.986Z,9.87
2019-04-09T20:01:56.442Z,9.17
2019-04-09T20:04:35.024Z,8.10
2019-04-09T20:07:10.528Z,8.13
2019-04-09T20:09:42.089Z,9.30
2019-04-09T20:12:14.102Z,8.50
2019-04-09T20:14:45.346Z,8.90
2019-04-09T20:17:16.110Z,10.10
2019-04-09T20:19:47.086Z,8.30
2019-04-09T20:22:19.092Z,8.40
2019-04-09T20:24:53.132Z,8.47
2019-04-09T20:27:25.331Z,7.60
2019-04-09T20:30:01.906Z,7.23
2019-04-09T20:32:34.691Z,6.80
2019-04-09T20:35:10.228Z,8.10
2019-04-09T20:37:39.286Z,8.40
2019-04-09T20:40:10.517Z,9.03
2019-04-09T20:42:41.458Z,8.30
2019-04-09T20:45:14.271Z,8.57
2019-04-09T20:47:48.309Z,10.70
2019-04-09T20:50:19.380Z,11.83
2019-04-09T20:52:57.038Z,10.80
2019-04-09T20:55:25.973Z,10.07
2019-04-09T20:57:57.987Z,12.00
2019-04-09T21:00:47.188Z,9.77
2019-04-09T21:03:37.491Z,10.00
2019-04-09T21:06:13.311Z,10.33
2019-04-09T21:08:44.038Z,8.83
2019-04-09T21:11:17.920Z,9.13
2019-04-09T21:13:48.958Z,9.67
2019-04-09T21:16:20.422Z,8.70
2019-04-09T21:18:51.977Z,9.83
2019-04-09T21:21:22.925Z,10.00
2019-04-09T21:23:57.277Z,9.30
2019-04-09T21:26:27.953Z,8.20
2019-04-09T21:28:59.808Z,8.00
2019-04-09T21:31:30.702Z,8.80
2019-04-09T21:34:03.832Z,8.97
2019-04-09T21:36:35.419Z,9.10
2019-04-09T21:39:08.828Z,8.57
2019-04-09T21:41:39.652Z,7.30
2019-04-09T21:44:10.301Z,7.10
2019-04-09T21:46:41.600Z,7.00
2019-04-09T21:49:12.328Z,6.37
2019-04-09T21:51:43.896Z,6.57
2019-04-09T21:54:15.612Z,6.40
2019-04-09T21:56:47.000Z,6.87
2019-04-09T21:59:17.836Z,6.90
2019-04-09T22:01:50.137Z,7.30
2019-04-09T22:04:21.208Z,6.53
2019-04-09T22:06:52.505Z,7.50
2019-04-09T22:09:23.349Z,7.67
2019-04-09T22:11:54.000Z,5.97
2019-04-09T22:14:24.641Z,6.13
2019-04-09T22:16:55.238Z,5.90
2019-04-09T22:19:26.206Z,5.90
2019-04-09T22:21:57.121Z,7.40
2019-04-09T22:24:27.845Z,5.43
2019-04-09T22:26:58.540Z,7.50
2019-04-09T22:29:30.260Z,6.10
2019-04-09T22:32:01.764Z,7.20
2019-04-09T22:34:32.751Z,6.97
2019-04-09T22:37:03.643Z,5.70
2019-04-09T22:39:34.635Z,5.57
2019-04-09T22:42:05.486Z,5.30
2019-04-09T22:44:36.500Z,5.60
2019-04-09T22:47:07.197Z,5.40
2019-04-09T22:49:37.808Z,5.00
2019-04-09T22:52:08.429Z,6.13
2019-04-09T22:54:38.960Z,5.37
2019-04-09T22:57:10.300Z,5.00
2019-04-09T22:59:41.800Z,5.73
2019-04-09T23:02:30.002Z,7.00
2019-04-09T23:05:20.557Z,6.67
2019-04-09T23:08:01.344Z,7.30
2019-04-09T23:10:48.300Z,6.40
2019-04-09T23:13:21.184Z,5.50
2019-04-09T23:15:51.888Z,5.83
2019-04-09T23:18:22.589Z,5.10
2019-04-09T23:20:53.245Z,5.03
2019-04-09T23:23:23.949Z,5.47
2019-04-09T23:25:55.255Z,5.60
2019-04-09T23:28:26.100Z,5.37
2019-04-09T23:30:56.742Z,6.20
2019-04-09T23:33:28.239Z,5.20
2019-04-09T23:35:59.381Z,5.00
2019-04-09T23:38:30.041Z,5.50
2019-04-09T23:41:01.560Z,4.90
2019-04-09T23:43:32.768Z,5.00
2019-04-09T23:46:04.114Z,4.47
2019-04-09T23:48:35.189Z,4.13
2019-04-09T23:51:07.281Z,5.30
2019-04-09T23:53:38.437Z,4.73
2019-04-09T23:56:09.446Z,4.80
2019-04-09T23:58:40.309Z,5.20
